Latest Weather Observations for Mullion

IDN60801

Issued at 8:22 am EST Tuesday 17 September 2019 (issued every 10 minutes, with the page automatically refreshed every 10 minutes)

About weather observations | Map of weather stations | Latest weather observations for NSW | Other Formats
Station Details ID: 250070 Name: MULLION (PCS) Lat: -35.11 Lon: 148.85 Height: 750.0 m
Data from the previous 72 hours. | See also: Recent months for locations in New South Wales
Date/Time
EST
Temp
°C
App
Temp
°C
Dew
Point
°C
Rel
Hum
%
Delta-T
°C
Wind Press
QNH
hPa
Press
MSL
hPa
Rain since
9am
mm
Dir  Spd
km/h
Gust
km/h
Spd
kts
Gust
kts
17/07:30am 2.3 -10.4 -0.6 81 1.1 SE 56 63 30 34 1021.0 - 8.6
17/07:20am 2.1 -10.1 0.0 86 0.8 SE 54 59 29 32 1021.3 - 8.6
17/07:10am 1.9 -10.7 -0.1 87 0.8 SE 56 57 30 31 1021.2 - 8.6
17/07:00am 1.8 -10.7 1.8 100 0.0 SE 57 61 31 33 1021.0 - 8.6
17/06:50am 1.6 -12.4 -14.8 28 4.4 SE 56 59 30 32 1020.6 - 8.6
17/06:40am 1.6 -11.3 1.6 100 0.0 SE 59 65 32 35 1020.7 - 8.6
17/06:00am 2.2 -10.8 -1.2 78 1.3 SE 57 65 31 35 1020.7 - 8.6
17/05:50am 2.2 -10.8 -1.3 78 1.3 SE 57 61 31 33 1020.5 - 8.6
17/05:40am 2.3 -10.5 -1.2 78 1.3 SE 56 61 30 33 1019.8 - 8.6
17/05:30am 2.6 -10.8 -1.6 74 1.6 SE 59 65 32 35 1019.6 - 8.6
17/05:20am 2.7 -10.3 -1.4 74 1.5 SE 57 67 31 36 1020.2 - 8.6
17/05:10am 2.7 -11.2 -2.7 67 2.0 SE 61 69 33 37 1018.4 - 8.6
17/05:00am 2.6 -12.4 -1.9 72 1.7 SE 67 76 36 41 1019.1 - 8.6
17/04:50am 2.3 -13.1 -2.1 73 1.6 SSE 69 82 37 44 1019.1 - 8.6
17/04:40am 2.0 -14.9 -7.5 49 3.1 SSE 74 80 40 43 1019.0 - 8.6
17/04:30am 2.0 -13.5 -1.4 78 1.3 SE 70 76 38 41 1018.1 - 8.6
17/04:20am 1.9 - - - - SE 72 80 39 43 1018.6 - 8.6
17/04:10am 1.8 -13.4 -0.9 82 1.0 SE 69 78 37 42 1017.6 - 8.6
17/04:00am 1.9 -11.7 0.1 88 0.7 SE 61 72 33 39 1019.8 - 8.6
17/03:50am 2.0 -12.0 0.0 87 0.8 SE 63 70 34 38 1020.0 - 8.6
17/03:40am 2.0 -13.1 0.0 87 0.8 SE 69 72 37 39 1019.0 - 8.6
17/03:30am 1.9 -12.4 0.2 88 0.7 SE 65 69 35 37 1018.6 - 8.4
17/03:20am 1.9 -12.0 0.3 89 0.6 SE 63 69 34 37 1018.8 - 8.4
17/03:10am 1.8 -11.3 0.5 91 0.5 SE 59 67 32 36 1019.0 - 8.4
17/03:00am 1.8 -11.0 0.4 90 0.5 SE 57 59 31 32 1019.2 - 8.4
17/02:50am 1.7 -10.9 0.4 91 0.5 SE 56 63 30 34 1019.8 - 8.4
17/02:30am 1.4 -11.7 0.5 94 0.4 SE 59 63 32 34 1019.6 - 8.4
17/02:20am 1.4 -12.1 0.6 94 0.3 SE 61 65 33 35 1019.2 - 8.4
17/02:10am 1.4 -12.0 1.2 99 0.1 SE 61 65 33 35 1019.4 - 8.4
17/02:00am 1.2 -11.4 1.1 99 0.0 SE 57 61 31 33 1019.6 - 8.4
17/01:50am 1.1 -11.0 1.0 99 0.0 SE 54 57 29 31 1019.8 - 8.4
17/01:40am 1.1 -10.6 0.9 99 0.1 SE 52 54 28 29 1020.2 - 8.4
17/01:20am 1.0 -10.7 0.9 99 0.0 SE 52 54 28 29 1020.5 - 8.4
17/01:00am 0.8 -11.4 0.6 99 0.1 SE 54 59 29 32 1020.7 - 8.4
17/12:40am 0.3 -9.8 0.1 99 0.1 SE 43 44 23 24 1021.3 - 8.2
17/12:30am 0.2 -10.1 0.0 99 0.1 SE 44 46 24 25 1021.4 - 8.2
17/12:20am 0.2 -10.5 0.0 99 0.1 SE 46 48 25 26 1021.4 - 8.2
17/12:10am 0.3 -10.8 0.1 99 0.1 SE 48 50 26 27 1021.3 - 8.2
17/12:00am 0.4 -11.1 0.1 98 0.1 SE 50 52 27 28 1021.1 - 8.2
 
Date/Time
EST
Temp
°C
App
Temp
°C
Dew
Point
°C
Rel
Hum
%
Delta-T
°C
Wind Press
QNH
hPa
Press
MSL
hPa
Rain since
9am
mm
Dir  Spd
km/h
Gust
km/h
Spd
kts
Gust
kts
16/11:50pm 0.4 -11.1 0.1 98 0.1 SE 50 54 27 29 1020.8 - 8.2
16/11:40pm 0.4 -10.7 0.1 98 0.1 SE 48 52 26 28 1021.4 - 8.2
16/11:30pm 0.4 -10.3 0.1 98 0.1 SE 46 48 25 26 1021.0 - 8.2
16/11:20pm 0.6 -10.5 0.2 97 0.2 SE 48 52 26 28 1020.8 - 8.2
16/11:10pm 0.9 -11.3 0.4 96 0.2 SSE 54 59 29 32 1021.3 - 8.0
16/11:00pm 1.3 -11.4 0.7 96 0.2 SSE 57 61 31 33 1020.6 - 8.0
16/10:50pm 1.7 -11.3 1.2 96 0.2 SSE 59 61 32 33 1020.4 - 7.8
16/10:40pm 2.0 -11.4 1.4 96 0.2 SSE 61 67 33 36 1020.5 - 7.8
16/10:30pm 2.1 -11.0 0.4 88 0.7 SSE 59 63 32 34 1020.2 - 7.4
16/10:20pm 2.3 -9.6 1.9 97 0.2 SE 54 57 29 31 1020.5 - 7.2
16/10:10pm 2.5 -9.4 2.0 96 0.2 SE 54 57 29 31 1020.4 - 6.6
16/10:00pm 2.7 -8.9 2.0 95 0.3 SSE 52 56 28 30 1019.8 - 6.2
16/09:50pm 2.9 -7.9 2.1 94 0.3 SE 48 54 26 29 1021.1 - 5.8
16/09:30pm 3.2 -6.7 2.5 95 0.3 SSE 44 50 24 27 1021.5 - 5.2
16/09:20pm 3.4 -7.3 2.6 94 0.3 SSE 48 52 26 28 1020.8 - 5.0
16/09:10pm 3.7 -6.0 3.0 95 0.3 SSE 43 44 23 24 1021.1 - 4.8
16/09:00pm 4.0 -5.2 3.4 96 0.3 SSE 41 46 22 25 1021.2 - 4.6
16/08:50pm 4.4 -5.7 3.9 97 0.2 SSE 46 52 25 28 1020.5 - 4.6
16/08:40pm 4.9 -4.7 4.6 98 0.1 SSE 44 48 24 26 1019.9 - 4.4
16/08:30pm 5.3 -2.5 4.9 97 0.2 SE 35 39 19 21 1020.2 - 4.2
16/08:20pm 5.9 -1.2 5.5 97 0.2 SSE 32 33 17 18 1020.4 - 3.8
16/08:10pm 7.1 1.7 6.5 96 0.3 SE 24 30 13 16 1020.7 - 3.2
16/08:00pm 9.4 5.8 8.4 93 0.5 SE 17 33 9 18 1020.2 - 3.0
16/07:50pm 9.9 8.3 7.8 87 1.1 S 6 7 3 4 1020.7 - 2.4
16/07:40pm 10.0 6.7 8.2 88 0.9 SW 15 15 8 8 1020.7 - 2.0
16/07:30pm 9.9 7.0 8.0 88 1.0 SW 13 17 7 9 1020.4 - 1.8
16/07:20pm 10.0 7.5 8.4 90 0.8 W 11 15 6 8 1020.2 - 1.2
16/07:10pm 10.2 6.9 8.0 86 1.1 WSW 15 17 8 9 1020.2 - 0.6
16/07:00pm 10.3 6.5 7.7 84 1.3 WSW 17 20 9 11 1019.9 - 0.4
16/06:50pm 10.6 7.6 7.9 83 1.4 SW 13 17 7 9 1019.7 - 0.2
16/06:40pm 11.0 7.5 7.2 77 1.9 SW 15 19 8 10 1019.7 - 0.2
16/06:30pm 11.3 8.6 7.5 77 1.9 WSW 11 13 6 7 1019.6 - 0.2
16/06:20pm 11.7 9.6 6.6 71 2.5 W 7 11 4 6 1019.4 - 0.0
16/06:10pm 12.0 9.6 7.0 71 2.5 WNW 9 13 5 7 1019.5 - 0.0
16/06:00pm 12.2 10.1 6.6 68 2.8 NW 7 9 4 5 1019.5 - 0.0
16/05:50pm 12.3 10.4 6.7 68 2.8 N 6 7 3 4 1019.3 - 0.0
16/05:40pm 12.4 9.8 6.3 66 3.0 WNW 9 17 5 9 1019.1 - 0.0
16/05:30pm 12.4 7.9 6.1 65 3.1 W 19 24 10 13 1019.0 - 0.0
16/05:20pm 12.4 8.7 6.2 66 3.1 W 15 20 8 11 1018.9 - 0.0
16/05:10pm 12.5 8.1 6.6 67 2.9 W 19 20 10 11 1018.7 - 0.0
16/05:00pm 12.6 7.7 6.9 68 2.9 W 22 24 12 13 1018.7 - 0.0
16/04:50pm 12.8 7.9 6.9 67 3.0 W 22 24 12 13 1018.7 - 0.0
16/04:40pm 13.0 7.7 6.8 66 3.1 W 24 28 13 15 1018.5 - 0.0
16/04:30pm 13.3 7.7 7.1 66 3.1 W 26 30 14 16 1018.4 - 0.0
16/04:20pm 14.0 7.8 6.1 59 3.9 W 28 35 15 19 1018.5 - 0.0
16/04:10pm 14.2 7.7 6.4 59 3.9 W 30 37 16 20 1018.4 - 0.0
16/04:00pm 14.5 8.0 6.3 58 4.1 W 30 37 16 20 1018.0 - 0.0
16/03:50pm 15.0 7.8 5.7 53 4.6 W 33 39 18 21 1018.2 - 0.0
16/03:40pm 15.3 7.6 5.5 52 4.9 W 35 43 19 23 1018.0 - 0.0
16/03:30pm 15.5 7.1 5.4 51 5.0 W 39 48 21 26 1017.7 - 0.0
16/03:20pm 15.6 6.4 5.3 50 5.1 W 43 48 23 26 1017.5 - 0.0
16/03:10pm 16.0 7.9 5.3 49 5.3 W 37 43 20 23 1017.8 - 0.0
16/03:00pm 16.2 7.3 5.0 47 5.5 W 41 54 22 29 1017.0 - 0.0
16/02:50pm 16.7 6.2 5.4 47 5.6 W 50 59 27 32 1017.0 - 0.0
16/02:40pm 16.9 7.1 5.4 46 5.8 W 46 52 25 28 1016.8 - 0.0
16/02:30pm 17.3 8.9 5.7 46 5.9 W 39 50 21 27 1016.5 - 0.0
16/02:10pm 17.5 7.7 5.2 44 6.2 W 46 57 25 31 1016.5 - 0.0
16/02:00pm 18.3 10.2 5.3 42 6.6 W 37 46 20 25 1016.2 - 0.0
16/01:50pm 18.4 9.5 5.1 41 6.7 W 41 52 22 28 1016.4 - 0.0
16/01:40pm 18.5 9.2 5.2 41 6.7 W 43 52 23 28 1016.1 - 0.0
16/01:30pm 18.6 8.8 5.2 41 6.8 W 46 54 25 29 1015.7 - 0.0
16/01:20pm 18.5 8.4 5.8 43 6.5 W 48 56 26 30 1015.6 - 0.0
16/01:10pm 18.4 7.8 5.2 42 6.7 W 50 56 27 30 1015.7 - 0.0
16/01:00pm 18.5 8.3 5.2 41 6.7 W 48 57 26 31 1015.7 - 0.0
16/12:50pm 19.1 10.9 4.9 39 7.1 WNW 37 41 20 22 1016.1 - 0.0
16/12:40pm 19.2 11.4 4.7 38 7.3 WNW 35 39 19 21 1016.0 - 0.0
16/12:30pm 19.2 11.9 4.7 38 7.3 WNW 32 37 17 20 1016.1 - 0.0
16/12:20pm 19.2 11.8 3.9 36 7.6 WNW 32 37 17 20 1015.9 - 0.0
16/12:10pm 18.9 10.0 3.2 35 7.6 WNW 39 46 21 25 1015.8 - 0.0
16/12:00pm 18.9 9.6 3.0 34 7.7 WNW 41 46 22 25 1015.9 - 0.0
16/11:50am 18.6 9.0 3.2 36 7.5 W 43 54 23 29 1015.8 - 0.0
16/11:40am 18.4 8.5 1.9 33 7.8 W 43 52 23 28 1015.8 - 0.0
16/11:30am 18.3 8.5 2.3 34 7.6 W 43 54 23 29 1016.4 - 0.0
16/11:20am 18.2 8.1 1.8 33 7.7 WNW 44 50 24 27 1016.3 - 0.0
16/11:10am 18.6 8.7 1.8 32 7.9 WNW 43 46 23 25 1016.8 - 0.0
16/11:00am 18.7 8.8 1.6 32 8.0 WNW 43 50 23 27 1016.9 - 0.0
16/10:50am 18.6 10.0 0.3 29 8.4 WNW 35 41 19 22 1016.9 - 0.0
16/10:40am 18.6 10.4 0.2 29 8.4 NW 33 46 18 25 1016.6 - 0.0
16/10:30am 18.4 9.6 -1.1 26 8.7 WNW 35 41 19 22 1016.5 - 0.0
16/10:20am 18.4 10.5 -1.8 25 8.8 WNW 30 35 16 19 1016.7 - 0.0
16/10:10am 18.0 8.7 -2.3 25 8.8 WNW 37 43 20 23 1016.7 - 0.0
16/10:00am 18.0 9.4 -2.8 24 8.9 WNW 33 35 18 19 1016.8 - 0.0
16/09:50am 17.6 8.5 -3.3 24 8.8 WNW 35 41 19 22 1016.8 - 0.0
16/09:40am 17.2 6.5 -4.7 22 8.9 WNW 43 48 23 26 1016.9 - 0.0
16/09:30am 17.1 7.5 -5.0 21 8.9 WNW 37 46 20 25 1017.0 - 0.0
16/09:20am 17.0 5.6 -5.1 21 8.9 WNW 46 52 25 28 1017.0 - 0.0
16/09:10am 17.0 5.1 -6.4 19 9.2 WNW 48 54 26 29 1017.2 - 0.0
16/09:00am 17.0 4.7 -6.6 19 9.2 WNW 50 61 27 33 1016.6 - 0.0
16/08:50am 16.9 5.0 -6.6 19 9.2 WNW 48 59 26 32 1017.0 - 0.0
16/08:40am 16.7 5.2 -7.0 19 9.2 WNW 46 59 25 32 1017.1 - 0.0
16/08:30am 16.1 5.5 -7.2 19 8.9 WNW 41 54 22 29 1017.0 - 0.0
16/08:20am 14.6 5.8 -6.2 23 8.0 WNW 32 41 17 22 1017.4 - 0.0
16/08:10am 13.5 6.0 -4.5 28 7.1 WNW 26 28 14 15 1017.4 - 0.0
16/08:00am 13.1 5.4 -3.3 32 6.6 NW 28 30 15 16 1017.4 - 0.0
16/07:50am 13.0 5.2 -4.0 30 6.7 NW 28 30 15 16 1017.0 - 0.0
16/07:40am 12.7 4.8 -4.8 29 6.8 NW 28 30 15 16 1016.9 - 0.0
16/07:30am 12.5 5.0 -4.4 30 6.6 NW 26 28 14 15 1016.9 - 0.0
16/07:20am 12.4 5.4 -3.9 32 6.4 NW 24 26 13 14 1017.0 - 0.0
16/07:10am 12.2 5.1 -4.7 30 6.5 NW 24 26 13 14 1016.9 - 0.0
16/07:00am 12.2 5.1 -4.2 31 6.4 NW 24 26 13 14 1016.9 - 0.0
16/06:50am 12.2 5.5 -3.8 32 6.3 NW 22 22 12 12 1017.0 - 0.0
16/06:40am 12.2 6.0 -3.5 33 6.2 NW 20 22 11 12 1016.9 - 0.0
16/06:30am 12.0 5.4 -3.4 34 6.1 NW 22 22 12 12 1016.9 - 0.0
16/06:20am 11.8 5.6 -3.1 35 6.0 NW 20 20 11 11 1016.9 - 0.0
16/06:10am 11.7 5.6 -2.7 36 5.8 NW 20 20 11 11 1017.0 - 0.0
16/06:00am 11.8 5.9 -2.4 37 5.8 NW 19 20 10 11 1016.9 - 0.0
16/05:50am 11.8 5.7 -2.5 37 5.8 NW 20 20 11 11 1016.8 - 0.0
16/05:40am 11.5 5.6 -2.2 38 5.6 NW 19 19 10 10 1016.8 - 0.0
16/05:30am 11.5 5.4 -2.0 39 5.5 NW 20 22 11 12 1016.8 - 0.0
16/05:20am 11.6 5.7 -1.9 39 5.5 NW 19 20 10 11 1016.7 - 0.0
16/05:10am 11.7 5.9 -1.6 39 5.5 NW 19 20 10 11 1016.7 - 0.0
16/05:00am 11.7 5.7 -1.5 40 5.5 NW 20 24 11 13 1016.6 - 0.0
16/04:50am 11.5 5.5 -1.4 40 5.3 NW 20 22 11 12 1016.6 - 0.0
16/04:40am 11.4 5.4 -1.2 41 5.2 NNW 20 22 11 12 1016.6 - 0.0
16/04:30am 11.6 5.4 -0.6 43 5.1 NW 22 22 12 12 1016.6 - 0.0
16/04:20am 12.3 6.0 -1.1 39 5.6 NW 22 24 12 13 1016.6 - 0.0
16/04:00am 13.0 6.3 -1.4 37 6.0 NNW 24 28 13 15 1016.6 - 0.0
16/03:50am 13.5 6.7 -1.6 35 6.3 NW 24 24 13 13 1016.7 - 0.0
16/03:40am 13.5 6.8 -1.4 35 6.3 NW 24 26 13 14 1016.8 - 0.0
16/03:30am 13.1 6.8 -0.8 38 5.9 WNW 22 24 12 13 1017.1 - 0.0
16/03:20am 13.2 6.5 -0.9 37 6.0 WNW 24 24 13 13 1017.3 - 0.0
16/03:10am 12.6 6.4 -0.5 40 5.6 NW 22 22 12 12 1017.4 - 0.0
16/03:00am 12.0 6.2 -0.2 43 5.2 NW 20 22 11 12 1017.5 - 0.0
16/02:50am 12.0 6.2 0.0 43 5.2 NNW 20 20 11 11 1017.7 - 0.0
16/02:40am 12.4 6.8 0.0 42 5.3 NW 19 20 10 11 1017.7 - 0.0
16/02:30am 12.5 6.7 -0.2 41 5.5 NNW 20 20 11 11 1017.8 - 0.0
16/02:20am 12.7 6.9 0.0 41 5.5 NNW 20 26 11 14 1018.0 - 0.0
16/02:10am 12.9 6.3 -0.2 40 5.6 NNW 24 26 13 14 1018.1 - 0.0
16/02:00am 13.0 6.1 -0.1 40 5.7 NNW 26 28 14 15 1018.3 - 0.0
16/01:50am 13.8 7.6 -0.2 38 6.1 NNW 22 26 12 14 1018.5 - 0.0
16/01:40am 14.3 8.6 -1.1 34 6.6 NNW 19 24 10 13 1018.7 - 0.0
16/01:30am 14.1 8.8 -0.8 36 6.4 NW 17 20 9 11 1018.9 - 0.0
16/01:20am 14.4 8.5 -0.7 35 6.5 NW 20 26 11 14 1019.0 - 0.0
16/01:10am 15.0 8.3 -1.1 33 6.9 WNW 24 30 13 16 1019.4 - 0.0
16/01:00am 14.6 7.5 -1.6 32 6.9 WNW 26 28 14 15 1019.5 - 0.0
16/12:50am 14.2 7.5 -1.2 34 6.6 WNW 24 28 13 15 1019.6 - 0.0
16/12:40am 14.4 7.7 -0.8 35 6.6 WNW 24 28 13 15 1019.7 - 0.0
16/12:30am 14.0 6.9 -1.5 34 6.6 WNW 26 32 14 17 1019.9 - 0.0
16/12:20am 13.1 6.7 -1.9 35 6.2 WNW 22 24 12 13 1019.8 - 0.0
16/12:10am 12.5 6.8 0.6 44 5.2 NW 20 20 11 11 1019.9 - 0.0
16/12:00am 12.3 6.6 0.7 45 5.1 NW 20 24 11 13 1019.8 - 0.0
 
Date/Time
EST
Temp
°C
App
Temp
°C
Dew
Point
°C
Rel
Hum
%
Delta-T
°C
Wind Press
QNH
hPa
Press
MSL
hPa
Rain since
9am
mm
Dir  Spd
km/h
Gust
km/h
Spd
kts
Gust
kts
15/11:50pm 12.1 6.0 0.3 44 5.1 NNW 22 24 12 13 1019.7 - 0.0
15/11:40pm 12.0 6.3 0.4 45 5.0 NW 20 22 11 12 1019.9 - 0.0
15/11:30pm 12.5 7.0 0.3 43 5.3 NW 19 24 10 13 1020.0 - 0.0
15/11:20pm 13.2 6.6 -0.3 39 5.8 NNW 24 26 13 14 1019.6 - 0.0
15/11:10pm 13.3 7.5 -0.2 39 5.8 NNW 20 20 11 11 1020.0 - 0.0
15/11:00pm 13.8 7.6 -0.4 37 6.1 NNW 22 24 12 13 1020.2 - 0.0
15/10:50pm 14.1 8.2 -0.5 36 6.3 NNW 20 22 11 12 1020.4 - 0.0
15/10:40pm 14.4 8.2 -0.6 35 6.5 NNW 22 22 12 12 1020.6 - 0.0
15/10:30pm 14.4 8.5 -0.8 35 6.6 NW 20 20 11 11 1020.7 - 0.0
15/10:20pm 14.3 8.6 -0.6 36 6.4 NW 19 20 10 11 1020.8 - 0.0
15/10:10pm 14.7 9.0 -0.5 35 6.6 NW 19 19 10 10 1021.0 - 0.0
15/10:00pm 14.9 9.2 -0.8 34 6.8 NW 19 19 10 10 1021.1 - 0.0
15/09:50pm 14.9 9.6 -0.9 34 6.8 NW 17 17 9 9 1021.3 - 0.0
15/09:40pm 14.8 9.9 -0.8 34 6.8 NW 15 15 8 8 1021.3 - 0.0
15/09:30pm 14.8 9.8 -0.9 34 6.8 NW 15 15 8 8 1021.4 - 0.0
15/09:20pm 14.8 9.9 -0.8 34 6.8 NW 15 17 8 9 1021.4 - 0.0
15/09:10pm 15.0 10.1 -0.6 34 6.8 NW 15 17 8 9 1021.5 - 0.0
15/09:00pm 15.1 10.2 -0.7 34 6.9 WNW 15 17 8 9 1021.7 - 0.0
15/08:50pm 15.1 10.2 -0.8 33 6.9 WNW 15 17 8 9 1021.6 - 0.0
15/08:40pm 15.1 9.8 -0.7 34 6.9 WNW 17 17 9 9 1021.7 - 0.0
15/08:30pm 15.0 9.7 -0.9 33 6.9 WNW 17 17 9 9 1021.8 - 0.0
15/08:20pm 14.9 10.0 -0.7 34 6.8 WNW 15 17 8 9 1021.9 - 0.0
15/08:10pm 15.0 10.0 -1.0 33 6.9 WNW 15 15 8 8 1021.9 - 0.0
15/08:00pm 15.0 9.6 -1.0 33 6.9 WNW 17 17 9 9 1022.0 - 0.0
15/07:50pm 15.1 9.7 -1.0 33 7.0 WNW 17 17 9 9 1022.1 - 0.0
15/07:40pm 15.3 10.3 -1.1 32 7.1 WNW 15 17 8 9 1022.1 - 0.0
15/07:30pm 15.3 9.6 -1.1 32 7.1 WNW 19 19 10 10 1022.2 - 0.0
15/07:20pm 15.3 9.6 -1.1 32 7.1 WNW 19 20 10 11 1022.2 - 0.0
15/07:10pm 15.5 9.7 -1.3 31 7.2 WNW 19 20 10 11 1022.2 - 0.0
15/07:00pm 15.5 10.1 -1.0 32 7.2 WNW 17 19 9 10 1022.1 - 0.0
15/06:50pm 15.6 10.6 -1.2 31 7.3 WNW 15 17 8 9 1022.2 - 0.0
15/06:40pm 15.7 10.3 -1.1 31 7.3 WNW 17 19 9 10 1022.3 - 0.0
15/06:30pm 15.7 10.3 -1.5 30 7.4 WNW 17 20 9 11 1022.2 - 0.0
15/06:20pm 15.8 10.0 -1.3 31 7.4 WNW 19 19 10 10 1022.2 - 0.0
15/06:00pm 15.9 10.1 -1.2 31 7.4 WNW 19 20 10 11 1022.1 - 0.0
15/05:50pm 16.0 10.6 -1.7 29 7.6 WNW 17 20 9 11 1022.1 - 0.0
15/05:40pm 16.2 10.8 -1.3 30 7.6 NW 17 19 9 10 1022.1 - 0.0
15/05:30pm 16.4 11.0 -1.7 29 7.8 WNW 17 19 9 10 1022.1 - 0.0
15/05:20pm 16.9 11.0 -2.1 27 8.2 WNW 19 20 10 11 1022.1 - 0.0
15/05:10pm 17.4 11.5 -2.0 26 8.4 WNW 19 20 10 11 1022.1 - 0.0
15/05:00pm 17.5 11.6 -2.4 25 8.5 NW 19 22 10 12 1021.9 - 0.0
15/04:50pm 16.9 10.3 -3.2 25 8.4 NW 22 26 12 14 1021.8 - 0.0
15/04:40pm 16.9 10.0 -3.0 25 8.4 NNW 24 28 13 15 1021.7 - 0.0
15/04:30pm 16.9 9.7 -2.2 27 8.2 NNW 26 28 14 15 1021.5 - 0.0
15/04:20pm 17.1 10.2 -2.3 26 8.3 NNW 24 28 13 15 1021.5 - 0.0
15/04:10pm 17.7 10.5 -2.2 25 8.6 NW 26 30 14 16 1021.5 - 0.0
15/04:00pm 18.0 11.2 -1.9 26 8.7 NNW 24 26 13 14 1021.5 - 0.0
15/03:50pm 18.1 12.1 -1.9 25 8.7 NW 20 24 11 13 1021.5 - 0.0
15/03:40pm 18.0 11.6 -1.4 26 8.5 NW 22 30 12 16 1021.8 - 0.0
15/03:30pm 17.9 11.0 -3.0 24 8.9 WNW 24 26 13 14 1021.7 - 0.0
15/03:20pm 17.9 10.3 -2.3 25 8.7 WNW 28 35 15 19 1021.9 - 0.0
15/03:10pm 18.2 10.3 -1.5 26 8.7 WNW 30 33 16 18 1022.0 - 0.0
15/03:00pm 18.1 10.6 -1.6 26 8.6 WNW 28 32 15 17 1022.2 - 0.0
15/02:50pm 18.0 10.3 -3.3 23 9.0 WNW 28 35 15 19 1022.2 - 0.0
15/02:40pm 18.0 10.7 -2.9 24 8.9 WNW 26 30 14 16 1022.3 - 0.0
15/02:30pm 17.7 10.4 -2.6 25 8.7 WNW 26 32 14 17 1022.5 - 0.0
15/02:20pm 18.0 11.8 -3.1 23 9.0 W 20 24 11 13 1022.6 - 0.0
15/02:10pm 18.1 11.4 -4.2 21 9.3 W 22 28 12 15 1022.7 - 0.0
15/02:00pm 17.9 9.2 -5.4 20 9.4 WNW 32 39 17 21 1022.8 - 0.0
15/01:50pm 18.0 9.0 -6.2 18 9.6 WNW 33 37 18 20 1022.8 - 0.0
15/01:40pm 18.0 8.0 -5.2 20 9.4 WNW 39 43 21 23 1022.8 - 0.0
15/01:30pm 18.0 7.5 -6.5 18 9.7 WNW 41 44 22 24 1022.7 - 0.0
15/01:20pm 18.8 8.7 -6.0 18 10.0 WNW 39 46 21 25 1022.8 - 0.0
15/01:10pm 18.6 9.9 -5.4 19 9.8 WNW 32 39 17 21 1023.0 - 0.0
15/01:00pm 17.9 9.4 -3.5 23 9.0 WNW 32 33 17 18 1023.3 - 0.0
15/12:50pm 17.6 9.1 -3.4 23 8.8 WNW 32 35 17 19 1023.4 - 0.0
15/12:40pm 17.6 9.4 -3.8 23 8.9 WNW 30 33 16 18 1023.5 - 0.0
15/12:30pm 17.3 9.3 -2.2 26 8.4 NW 30 35 16 19 1023.5 - 0.0
15/12:20pm 18.0 10.1 -1.4 26 8.5 NW 30 32 16 17 1023.6 - 0.0
15/12:10pm 17.8 10.2 -2.0 26 8.6 NW 28 32 15 17 1023.5 - 0.0
15/12:00pm 16.9 8.9 -2.2 27 8.2 NW 30 32 16 17 1023.8 - 0.0
15/11:50am 17.1 10.0 -1.4 28 8.1 NW 26 32 14 17 1023.7 - 0.0
15/11:40am 16.9 9.5 -0.6 30 7.8 WNW 28 32 15 17 1023.9 - 0.0
15/11:30am 16.7 9.6 -1.6 28 7.9 WNW 26 30 14 16 1023.9 - 0.0
15/11:20am 16.6 9.7 0.1 32 7.4 NW 26 28 14 15 1024.1 - 0.0
15/11:10am 16.1 9.5 2.1 39 6.5 NW 26 28 14 15 1024.2 - 0.0
15/11:00am 15.9 10.0 1.5 37 6.6 NW 22 24 12 13 1024.4 - 0.0
15/10:50am 14.8 8.4 3.4 46 5.4 NW 26 28 14 15 1024.5 - 0.0
15/10:40am 13.8 7.5 3.5 50 4.8 NW 26 30 14 16 1024.6 - 0.0
15/10:30am 13.1 6.4 3.5 52 4.5 NW 28 30 15 16 1024.6 - 0.0
15/10:20am 12.6 6.6 3.5 54 4.2 NW 24 28 13 15 1024.8 - 0.0
15/10:10am 12.3 6.6 3.0 53 4.3 NW 22 22 12 12 1024.8 - 0.0
15/10:00am 11.8 6.5 2.9 54 4.1 NW 20 22 11 12 1025.0 - 0.0
15/09:50am 11.3 6.0 3.0 56 3.8 NW 20 22 11 12 1025.1 - 0.0
15/09:40am 11.1 6.0 3.0 57 3.7 NW 19 19 10 10 1025.0 - 0.0
15/09:30am 10.2 4.4 2.2 57 3.6 WNW 22 24 12 13 1025.3 - 0.0
15/09:20am 9.9 4.5 2.3 59 3.4 WNW 20 22 11 12 1025.3 - 0.0
15/09:10am 9.8 5.2 1.5 56 3.6 WNW 15 19 8 10 1025.4 - 0.0
15/09:00am 9.7 5.5 1.4 56 3.6 WNW 13 15 7 8 1025.4 - 0.0
15/08:50am 9.2 4.9 1.2 57 3.4 WNW 13 15 7 8 1025.4 - 0.0
15/08:40am 8.9 4.3 1.5 60 3.2 WNW 15 17 8 9 1025.5 - 0.0
15/08:30am 8.6 4.3 1.3 60 3.1 WNW 13 15 7 8 1025.3 - 0.0
15/08:20am 8.7 4.5 1.6 61 3.1 WNW 13 17 7 9 1025.4 - 0.0
15/08:10am 8.8 4.0 0.3 55 3.6 NW 15 17 8 9 1025.3 - 0.0
15/08:00am 9.2 5.2 0.3 53 3.7 NW 11 13 6 7 1025.2 - 0.0
15/07:50am 9.0 5.0 -2.0 46 4.4 NW 9 11 5 6 1025.2 - 0.0
15/07:40am 8.4 5.0 -0.9 52 3.8 NW 7 9 4 5 1025.0 - 0.0
15/07:30am 8.2 4.4 -1.1 52 3.7 NW 9 11 5 6 1024.9 - 0.0
15/07:20am 7.9 4.6 -1.0 53 3.6 NW 6 7 3 4 1024.8 - 0.0
15/07:10am 8.5 5.1 -0.5 53 3.7 NW 7 7 4 4 1024.8 - 0.0
15/07:00am 9.1 5.8 -1.1 49 4.1 NNW 6 9 3 5 1024.6 - 0.0
15/06:50am 9.3 6.3 -1.9 45 4.5 NNW 4 9 2 5 1024.5 - 0.0
15/06:40am 9.8 5.8 -2.3 42 4.8 NW 9 15 5 8 1024.5 - 0.0
15/06:30am 10.6 5.6 -4.6 34 5.8 NNW 13 15 7 8 1024.4 - 0.0
15/06:20am 10.7 6.5 -3.5 36 5.6 NNW 9 11 5 6 1024.4 - 0.0
15/06:10am 10.7 6.5 -3.8 36 5.6 N 9 11 5 6 1024.4 - 0.0
15/06:00am 10.9 7.0 -5.1 32 6.0 N 7 11 4 6 1024.4 - 0.0
15/05:50am 10.9 6.6 -4.8 33 6.0 NW 9 13 5 7 1024.4 - 0.0
15/05:40am 10.8 6.1 -4.9 33 6.0 WNW 11 15 6 8 1024.2 - 0.0
15/05:30am 10.7 5.7 -4.4 34 5.8 WNW 13 15 7 8 1024.0 - 0.0
15/05:20am 10.6 5.2 -4.1 35 5.7 W 15 17 8 9 1024.0 - 0.0
15/05:10am 10.9 4.8 -4.0 35 5.8 W 19 20 10 11 1023.9 - 0.0
15/05:00am 9.9 3.6 -3.6 38 5.2 W 20 22 11 12 1024.0 - 0.0
15/04:50am 9.4 2.9 -2.1 44 4.6 W 22 22 12 12 1023.8 - 0.0
15/04:40am 8.7 2.5 -0.5 52 3.8 W 22 24 12 13 1023.6 - 0.0
15/04:30am 7.7 0.8 0.3 59 3.1 W 26 28 14 15 1023.5 - 0.0
15/04:20am 7.9 0.8 1.1 62 2.9 W 28 28 15 15 1023.5 - 0.0
15/04:10am 8.1 0.7 -1.0 52 3.7 W 28 30 15 16 1023.4 - 0.0
15/04:00am 8.0 1.0 -0.4 55 3.4 W 26 28 14 15 1023.5 - 0.0
15/03:50am 8.4 1.7 -0.9 52 3.8 WSW 24 26 13 14 1023.5 - 0.0
15/03:40am 6.9 0.7 -0.2 60 2.9 WSW 22 24 12 13 1023.5 - 0.0
15/03:30am 8.2 2.5 0.5 58 3.2 WSW 20 22 11 12 1023.5 - 0.0
15/03:20am 9.1 3.4 0.4 54 3.7 WSW 20 20 11 11 1023.6 - 0.0
15/03:10am 10.4 4.7 -0.7 46 4.6 W 19 20 10 11 1023.7 - 0.0
15/03:00am 10.4 5.1 -0.5 47 4.6 W 17 17 9 9 1023.8 - 0.0
15/02:50am 10.4 5.2 0.0 48 4.4 W 17 19 9 10 1023.8 - 0.0
15/02:40am 9.9 4.3 0.2 51 4.1 WNW 19 19 10 10 1023.9 - 0.0
15/02:30am 10.0 4.5 0.3 51 4.1 WNW 19 19 10 10 1023.8 - 0.0
15/02:20am 10.7 5.9 0.0 47 4.5 WNW 15 17 8 9 1024.0 - 0.0
15/02:00am 10.2 5.4 0.4 50 4.2 WNW 15 17 8 9 1023.9 - 0.0
15/01:50am 11.5 7.1 0.4 46 4.8 NW 13 15 7 8 1023.9 - 0.0
15/01:40am 11.5 7.4 0.1 45 4.9 WNW 11 13 6 7 1024.2 - 0.0
15/01:30am 11.3 7.0 1.3 50 4.4 WNW 13 15 7 8 1024.4 - 0.0
15/01:20am 11.2 7.3 1.3 50 4.3 WNW 11 13 6 7 1024.5 - 0.0
15/01:10am 11.5 7.6 1.0 48 4.6 WNW 11 13 6 7 1024.6 - 0.0
15/01:00am 11.2 7.3 1.2 50 4.4 WNW 11 15 6 8 1024.6 - 0.0
15/12:50am 11.4 7.5 1.0 49 4.5 NW 11 15 6 8 1024.6 - 0.0
15/12:40am 12.1 8.0 -0.2 42 5.3 WNW 11 13 6 7 1024.5 - 0.0
15/12:30am 11.8 7.5 0.7 46 4.8 W 13 17 7 9 1024.7 - 0.0
15/12:20am 12.9 7.3 -0.1 41 5.6 W 19 19 10 10 1024.7 - 0.0
15/12:10am 12.8 6.9 -1.0 38 5.8 W 20 24 11 13 1024.7 - 0.0
15/12:00am 12.6 6.0 -0.3 41 5.5 WSW 24 24 13 13 1024.8 - 0.0
 
Date/Time
EST
Temp
°C
App
Temp
°C
Dew
Point
°C
Rel
Hum
%
Delta-T
°C
Wind Press
QNH
hPa
Press
MSL
hPa
Rain since
9am
mm
Dir  Spd
km/h
Gust
km/h
Spd
kts
Gust
kts
14/11:50pm 12.6 6.7 -0.8 39 5.7 W 20 22 11 12 1024.7 - 0.0
14/11:40pm 11.9 7.4 -0.5 42 5.3 WNW 13 17 7 9 1024.8 - 0.0
14/11:30pm 11.7 8.3 -0.5 43 5.2 WNW 7 11 4 6 1024.8 - 0.0
14/11:20pm 12.2 8.4 -0.4 42 5.4 W 9 13 5 7 1024.8 - 0.0
14/11:00pm 12.7 9.5 -0.3 40 5.6 W 6 9 3 5 1024.9 - 0.0
14/10:50pm 13.1 8.9 -1.1 37 6.0 SSW 11 17 6 9 1025.1 - 0.0
14/10:40pm 13.4 9.6 -0.4 38 5.9 S 9 17 5 9 1024.9 - 0.0
14/10:30pm 13.5 10.1 -0.9 37 6.1 S 7 15 4 8 1025.0 - 0.0
14/10:20pm 13.5 8.9 -0.7 37 6.1 SSW 13 20 7 11 1025.3 - 0.0
14/10:10pm 13.8 10.5 -0.2 38 6.1 SSW 7 11 4 6 1025.4 - 0.0
14/10:00pm 13.7 8.8 -0.4 38 6.1 SW 15 19 8 10 1025.2 - 0.0
14/09:50pm 13.6 10.1 -1.1 36 6.3 W 7 15 4 8 1025.0 - 0.0
14/09:40pm 13.8 10.6 -0.2 38 6.1 SSW 6 13 3 7 1025.1 - 0.0
14/09:30pm 14.2 9.7 -0.4 36 6.3 SW 13 22 7 12 1025.0 - 0.0
14/09:20pm 13.7 10.4 -1.4 35 6.4 SW 6 9 3 5 1025.0 - 0.0
14/09:10pm 12.6 9.5 0.1 42 5.4 WNW 6 11 3 6 1025.1 - 0.0
14/09:00pm 12.4 8.9 1.1 46 5.0 WNW 9 13 5 7 1025.0 - 0.0
14/08:50pm 12.8 8.8 0.4 42 5.4 NW 11 17 6 9 1024.8 - 0.0
14/08:40pm 13.6 8.0 -0.1 39 6.0 S 19 41 10 22 1024.6 - 0.0
14/08:30pm 14.5 3.3 -0.6 35 6.5 SW 48 52 26 28 1024.0 - 0.0
14/08:20pm 14.3 3.2 0.1 38 6.2 WSW 48 52 26 28 1023.8 - 0.0
14/08:10pm 14.2 2.4 0.3 38 6.1 WSW 52 56 28 30 1023.8 - 0.0
14/08:00pm 13.9 2.5 0.4 39 5.9 WSW 50 56 27 30 1023.7 - 0.0
14/07:50pm 13.5 1.8 0.9 42 5.6 WSW 52 54 28 29 1023.8 - 0.0
14/07:40pm 13.5 0.9 1.1 43 5.5 WSW 57 61 31 33 1023.6 - 0.0
14/07:30pm 13.6 0.5 -1.9 34 6.5 WSW 57 59 31 32 1023.5 - 0.0
14/07:20pm 13.7 1.6 1.2 42 5.6 WSW 54 57 29 31 1023.5 - 0.0
14/07:10pm 13.7 2.0 1.2 42 5.6 WSW 52 57 28 31 1023.3 - 0.0
14/07:00pm 13.7 1.6 1.2 42 5.6 WSW 54 57 29 31 1023.2 - 0.0
14/06:50pm 13.7 -0.2 -20.5 8 9.5 WSW 54 57 29 31 1023.1 - 0.0
14/06:40pm 13.8 2.5 1.0 41 5.7 WSW 50 54 27 29 1023.2 - 0.0
14/06:30pm 14.0 3.4 0.9 41 5.8 WSW 46 50 25 27 1023.2 - 0.0
14/06:20pm 14.0 3.8 0.8 40 5.9 WSW 44 50 24 27 1023.1 - 0.0
14/06:10pm 13.8 3.7 1.4 43 5.6 W 44 50 24 27 1023.2 - 0.0
14/06:00pm 13.8 3.6 0.9 41 5.7 W 44 50 24 27 1022.6 - 0.0
14/05:50pm 14.4 4.3 1.6 42 5.8 W 44 48 24 26 1022.7 - 0.0
14/05:40pm 14.8 4.8 1.3 40 6.1 W 43 46 23 25 1022.8 - 0.0
14/05:30pm 15.1 5.5 1.2 39 6.3 W 41 44 22 24 1023.0 - 0.0
14/05:20pm 15.3 4.8 1.2 38 6.4 W 46 48 25 26 1022.8 - 0.0
14/05:00pm 15.8 4.5 1.4 37 6.6 W 50 52 27 28 1022.3 - 0.0
14/04:50pm 16.0 4.8 1.6 37 6.6 W 50 54 27 29 1022.4 - 0.0
14/04:40pm 16.1 4.9 1.7 38 6.6 W 50 54 27 29 1022.3 - 0.0
14/04:30pm 16.2 6.1 7.6 56 4.5 W 50 54 27 29 1022.2 - 0.0
14/04:20pm 16.4 5.9 1.7 37 6.8 W 46 52 25 28 1022.5 - 0.0
14/04:10pm 16.5 5.6 1.2 35 7.0 W 48 52 26 28 1022.1 - 0.0
14/04:00pm 16.7 6.7 1.1 35 7.1 W 43 48 23 26 1022.5 - 0.0
14/03:50pm 17.0 9.0 0.5 32 7.5 WNW 32 37 17 20 1022.7 - 0.0
14/03:40pm 17.0 9.4 0.7 33 7.4 W 30 35 16 19 1022.8 - 0.0
14/03:30pm 17.0 9.6 1.6 35 7.1 WNW 30 33 16 18 1022.9 - 0.0
14/03:20pm 17.0 10.3 1.5 35 7.2 WNW 26 30 14 16 1023.0 - 0.0
14/03:10pm 17.0 10.2 0.7 33 7.4 WNW 26 32 14 17 1023.1 - 0.0
14/03:00pm 16.8 9.2 0.8 34 7.3 WNW 30 35 16 19 1023.1 - 0.0
14/02:50pm 16.8 9.3 1.0 34 7.2 WNW 30 35 16 19 1023.0 - 0.0
14/02:40pm 16.9 9.7 0.8 33 7.3 WNW 28 33 15 18 1023.1 - 0.0
14/02:30pm 17.0 9.8 0.8 33 7.4 WNW 28 35 15 19 1023.2 - 0.0
14/02:20pm 16.3 8.2 1.1 35 6.9 W 33 43 18 23 1023.2 - 0.0
14/02:10pm 16.7 9.6 1.4 35 7.1 WNW 28 33 15 18 1023.4 - 0.0
14/02:00pm 16.4 8.5 1.0 35 7.0 W 32 33 17 18 1023.3 - 0.0
14/01:50pm 16.7 9.6 1.1 35 7.1 W 28 35 15 19 1023.5 - 0.0
14/01:40pm 16.3 8.5 1.7 37 6.7 W 32 37 17 20 1023.6 - 0.0
14/01:30pm 16.4 8.9 1.3 36 6.9 WNW 30 35 16 19 1023.7 - 0.0
14/01:20pm 16.5 9.5 1.7 37 6.9 W 28 33 15 18 1023.7 - 0.0
14/01:10pm 16.8 10.2 2.0 37 6.9 WNW 26 30 14 16 1023.8 - 0.0
14/01:00pm 16.7 10.1 2.1 37 6.8 WNW 26 30 14 16 1023.8 - 0.0
14/12:50pm 16.2 8.7 1.4 36 6.8 WNW 30 32 16 17 1023.8 - 0.0
14/12:40pm 16.1 9.0 1.1 36 6.8 WNW 28 33 15 18 1024.0 - 0.0
14/12:30pm 16.2 8.8 1.7 37 6.7 WNW 30 33 16 18 1024.1 - 0.0
14/12:20pm 16.0 9.1 2.3 39 6.4 WNW 28 33 15 18 1024.1 - 0.0
14/12:10pm 15.7 8.8 2.8 42 6.1 WNW 28 33 15 18 1024.2 - 0.0
14/12:00pm 15.8 10.1 2.6 41 6.2 WNW 22 30 12 16 1024.2 - 0.0
14/11:50am 15.4 9.4 3.1 43 5.8 WNW 24 30 13 16 1024.4 - 0.0
14/11:40am 15.4 9.6 2.2 41 6.1 WNW 22 26 12 14 1024.5 - 0.0
14/11:30am 15.3 9.5 2.4 42 6.0 NW 22 28 12 15 1024.6 - 0.0
14/11:20am 15.3 10.1 2.6 42 5.9 NW 19 24 10 13 1024.7 - 0.0
14/11:10am 15.1 10.9 1.9 41 6.1 WNW 13 17 7 9 1024.8 - 0.0
14/11:00am 15.1 11.6 1.3 39 6.3 NW 9 13 5 7 1025.0 - 0.0
14/10:50am 14.6 10.3 1.1 40 6.1 NW 13 17 7 9 1025.1 - 0.0
14/10:40am 14.5 10.6 1.4 41 5.9 NNW 11 13 6 7 1025.1 - 0.0
14/10:30am 14.1 10.2 1.4 42 5.7 NNW 11 11 6 6 1025.2 - 0.0
14/10:20am 13.7 9.7 0.7 41 5.8 NW 11 13 6 7 1025.2 - 0.0
14/10:10am 13.5 10.1 1.6 44 5.4 NNW 9 13 5 7 1025.2 - 0.0
14/10:00am 13.0 9.1 1.0 44 5.3 NW 11 15 6 8 1025.2 - 0.0
14/09:50am 12.7 8.6 2.5 50 4.7 NW 13 15 7 8 1025.2 - 0.0
14/09:40am 12.4 8.2 1.4 47 4.9 NW 13 15 7 8 1025.2 - 0.0
14/09:30am 12.1 7.8 1.3 47 4.8 NW 13 15 7 8 1025.2 - 0.0
14/09:20am 11.6 7.5 2.2 52 4.2 NW 13 15 7 8 1025.3 - 0.0
14/09:10am 11.0 6.4 1.6 52 4.1 NW 15 17 8 9 1025.3 - 0.0
14/09:00am 10.2 5.7 2.3 58 3.5 WNW 15 19 8 10 1025.2 - 0.0
14/08:50am 9.5 5.1 2.6 62 3.1 WNW 15 17 8 9 1025.1 - 0.0
14/08:40am 8.8 4.0 2.6 65 2.7 WNW 17 20 9 11 1025.2 - 0.0
14/08:30am 8.3 2.8 1.9 64 2.8 WNW 20 22 11 12 1024.9 - 0.0

Other formats

Comma delimited format used in spreadsheet applications
http://www.bom.gov.au/fwo/IDN60801/IDN60801.99763.axf

JavaScript Object Notation format (JSON) in row-major order
http://www.bom.gov.au/fwo/IDN60801/IDN60801.99763.json

Data quality

Most of these data are generated automatically and are frequently updated. Quality checks on data are not normally performed. It is possible for incorrect values to appear. Refer to information at About Latest Weather Observations and please check the disclaimer before using these data.